Time;durP1;ratioP1;P1;durP2;ratioP2;P2;SDS_P1;SDS_P2;PMS_P1;PMS_P2;Temp;Humidity;BMP_temperature;BMP_pressure;BME280_temperature;BME280_humidity;BME280_pressure;Samples;Min_cycle;Max_cycle;Signal;HPM_P1;HPM_P2
2022/09/29 00:00:34;;;;;;;3.58;3.08;;;6.90;99.90;;;;;;5013057;28;20038;-68
2022/09/29 00:02:59;;;;;;;3.50;2.25;;;6.90;99.90;;;;;;5012852;28;20495;-68
2022/09/29 00:05:25;;;;;;;2.80;2.50;;;7.00;99.90;;;;;;5012901;28;20042;-68
2022/09/29 00:07:51;;;;;;;2.80;2.42;;;6.90;99.90;;;;;;5014263;28;20491;-68
2022/09/29 00:10:16;;;;;;;4.65;3.30;;;6.90;99.90;;;;;;5014171;28;20046;-68
2022/09/29 00:12:42;;;;;;;3.90;2.30;;;6.80;99.90;;;;;;5014033;28;20092;-68
2022/09/29 00:15:08;;;;;;;4.80;2.88;;;6.80;99.90;;;;;;5013777;28;20121;-68
2022/09/29 00:17:33;;;;;;;6.57;2.78;;;6.70;99.90;;;;;;5019476;28;20457;-68
2022/09/29 00:19:59;;;;;;;3.20;2.20;;;6.70;99.90;;;;;;5033787;28;20547;-68
2022/09/29 00:22:25;;;;;;;6.10;3.00;;;6.80;99.90;;;;;;5015105;28;20035;-68
2022/09/29 00:24:50;;;;;;;6.47;3.00;;;6.80;99.90;;;;;;5013875;28;20493;-68
2022/09/29 00:27:17;;;;;;;4.53;2.90;;;6.80;99.90;;;;;;5012387;28;20054;-68
2022/09/29 00:29:43;;;;;;;3.58;3.28;;;6.60;99.90;;;;;;5027670;28;20030;-68
2022/09/29 00:32:10;;;;;;;4.03;3.10;;;6.60;99.90;;;;;;5013766;28;20121;-68
2022/09/29 00:34:35;;;;;;;4.68;3.60;;;6.70;99.90;;;;;;5013537;28;20038;-68
2022/09/29 00:37:01;;;;;;;3.97;3.10;;;6.70;99.90;;;;;;5013449;28;20049;-68
2022/09/29 00:39:27;;;;;;;4.93;3.60;;;6.90;99.90;;;;;;5013686;28;20041;-67
2022/09/29 00:41:52;;;;;;;4.32;3.88;;;6.80;99.90;;;;;;5013471;28;20052;-68
2022/09/29 00:44:18;;;;;;;5.68;3.58;;;6.80;99.90;;;;;;5019396;28;20037;-68
2022/09/29 00:46:53;;;;;;;3.55;2.92;;;;;;;;;;5027036;28;20042;-68
2022/09/29 00:49:34;;;;;;;;;;;6.90;99.90;;;;;;5013852;28;20072;-68
2022/09/29 00:52:31;;;;;;;3.20;2.90;;;6.80;99.90;;;;;;5013405;28;19964;-68
2022/09/29 00:55:17;;;;;;;3.67;3.38;;;6.70;99.90;;;;;;5012082;28;20115;-68
2022/09/29 00:57:50;;;;;;;6.07;2.97;;;6.80;99.90;;;;;;5012201;28;20046;-68
2022/09/29 01:00:16;;;;;;;4.60;2.35;;;6.60;99.90;;;;;;5013485;28;20037;-68
2022/09/29 01:02:47;;;;;;;4.45;2.55;;;6.40;99.90;;;;;;5017792;28;20045;-68
2022/09/29 01:05:26;;;;;;;8.27;2.78;;;6.40;99.90;;;;;;5031536;28;20187;-68
2022/09/29 01:07:52;;;;;;;2.97;2.75;;;6.30;99.90;;;;;;5029296;28;20095;-68
2022/09/29 01:10:18;;;;;;;3.30;2.95;;;6.40;99.90;;;;;;5032868;28;20045;-68
2022/09/29 01:12:46;;;;;;;24.85;5.00;;;6.30;99.90;;;;;;5033120;28;20029;-68
2022/09/29 01:15:14;;;;;;;4.10;3.70;;;6.30;99.90;;;;;;5031527;28;20499;-68
2022/09/29 01:17:40;;;;;;;3.83;3.30;;;6.20;99.90;;;;;;5019920;28;20056;-68
2022/09/29 01:20:19;;;;;;;4.53;3.28;;;6.20;99.90;;;;;;5017993;28;20120;-68
2022/09/29 01:22:50;;;;;;;4.30;3.90;;;6.40;99.90;;;;;;5019462;28;20049;-68
2022/09/29 01:25:22;;;;;;;3.47;3.17;;;6.30;99.90;;;;;;5018146;28;20052;-68
2022/09/29 01:28:25;;;;;;;30.25;4.70;;;6.10;99.90;;;;;;5002249;28;20051;-68
2022/09/29 01:31:13;;;;;;;4.13;3.40;;;6.30;99.90;;;;;;5019445;28;20508;-68
2022/09/29 01:34:08;;;;;;;5.10;2.92;;;6.30;99.90;;;;;;5019579;28;20049;-68
2022/09/29 01:37:11;;;;;;;5.18;4.03;;;6.40;99.90;;;;;;5018309;28;20080;-68
2022/09/29 01:39:41;;;;;;;4.32;3.92;;;6.30;99.90;;;;;;5019796;28;20041;-68
2022/09/29 01:42:28;;;;;;;3.67;3.38;;;6.60;99.90;;;;;;5018420;28;20391;-68
2022/09/29 01:45:03;;;;;;;3.97;3.10;;;6.40;99.90;;;;;;5029299;28;20050;-67
2022/09/29 01:47:37;;;;;;;4.65;3.47;;;6.50;99.90;;;;;;5038096;28;20394;-68
2022/09/29 01:50:12;;;;;;;3.45;3.15;;;6.40;99.90;;;;;;5026788;28;20053;-68
2022/09/29 01:52:43;;;;;;;3.17;2.88;;;6.30;99.90;;;;;;5025485;28;20067;-68
2022/09/29 01:55:15;;;;;;;2.60;2.40;;;6.30;99.90;;;;;;5026556;28;20076;-68
2022/09/29 01:57:54;;;;;;;3.38;3.08;;;6.30;99.90;;;;;;5019374;28;20052;-68
2022/09/29 02:00:22;;;;;;;3.47;3.17;;;6.10;99.90;;;;;;5018255;28;20077;-68
2022/09/29 02:02:53;;;;;;;8.93;3.30;;;6.20;99.90;;;;;;5019204;28;20404;-68
2022/09/29 02:05:28;;;;;;;3.35;2.42;;;6.10;99.90;;;;;;5018432;28;20038;-68
2022/09/29 02:07:59;;;;;;;4.73;2.63;;;6.20;99.90;;;;;;5018258;28;20456;-68
2022/09/29 02:10:42;;;;;;;12.07;3.63;;;6.00;99.90;;;;;;5019371;28;20391;-68
2022/09/29 02:13:09;;;;;;;3.00;2.70;;;6.00;99.90;;;;;;5032054;28;20112;-68
2022/09/29 02:15:41;;;;;;;4.80;2.92;;;6.00;99.90;;;;;;5018994;28;20064;-68
2022/09/29 02:18:15;;;;;;;3.88;2.88;;;6.00;99.90;;;;;;5017812;28;20126;-68
2022/09/29 02:20:41;;;;;;;7.90;3.08;;;;;;;;;;5019229;28;20073;-67
2022/09/29 02:23:07;;;;;;;5.30;2.90;;;6.00;99.90;;;;;;5017859;28;20133;-67
2022/09/29 02:25:37;;;;;;;18.77;3.75;;;5.90;99.90;;;;;;5019386;28;20109;-68
2022/09/29 02:28:03;;;;;;;3.83;3.45;;;5.90;99.90;;;;;;5018930;28;20050;-68
2022/09/29 02:30:29;;;;;;;5.97;3.50;;;5.90;99.90;;;;;;5019165;28;20096;-68
2022/09/29 02:32:54;;;;;;;4.07;3.58;;;5.90;99.90;;;;;;5017622;28;20041;-68
2022/09/29 02:35:21;;;;;;;5.38;3.65;;;6.00;99.90;;;;;;5022867;28;20030;-68
2022/09/29 02:37:58;;;;;;;4.63;4.10;;;6.00;99.90;;;;;;5035639;28;20385;-68
2022/09/29 02:40:27;;;;;;;5.05;4.55;;;;;;;;;;5028156;28;20038;-68
2022/09/29 02:43:23;;;;;;;15.77;3.88;;;5.90;99.90;;;;;;5014699;28;20488;-68
2022/09/29 02:46:01;;;;;;;5.20;4.63;;;5.90;99.90;;;;;;5013602;28;20052;-68
2022/09/29 02:48:48;;;;;;;5.70;3.40;;;5.80;99.90;;;;;;5014642;28;20640;-68
2022/09/29 02:51:19;;;;;;;5.15;3.90;;;5.80;99.90;;;;;;5014711;28;20042;-68
2022/09/29 02:54:09;;;;;;;5.72;4.47;;;5.80;99.90;;;;;;5014244;28;20041;-68
2022/09/29 02:56:52;;;;;;;4.95;4.30;;;5.80;99.90;;;;;;5015531;28;20381;-68
2022/09/29 02:59:50;;;;;;;4.93;4.35;;;5.80;99.90;;;;;;5014303;28;20046;-68
2022/09/29 03:02:25;;;;;;;5.20;4.20;;;5.80;99.90;;;;;;5015323;28;20092;-68
2022/09/29 03:04:52;;;;;;;5.40;4.10;;;5.90;99.90;;;;;;5026086;28;20443;-68
2022/09/29 03:07:18;;;;;;;5.93;4.55;;;5.90;99.90;;;;;;5033789;28;20071;-67
2022/09/29 03:09:44;;;;;;;5.32;3.38;;;5.80;99.90;;;;;;5023889;28;20033;-68
2022/09/29 03:12:09;;;;;;;9.80;3.63;;;5.70;99.90;;;;;;5026997;28;20411;-68
2022/09/29 03:14:35;;;;;;;3.75;3.35;;;5.70;99.90;;;;;;5029801;28;20493;-68
2022/09/29 03:17:00;;;;;;;3.97;3.50;;;5.70;99.90;;;;;;5014077;28;20096;-68
2022/09/29 03:19:26;;;;;;;4.38;3.78;;;5.80;99.90;;;;;;5013857;28;20046;-68
2022/09/29 03:21:52;;;;;;;5.55;3.60;;;5.80;99.90;;;;;;5014962;28;20607;-68
2022/09/29 03:24:17;;;;;;;3.78;3.15;;;5.80;99.90;;;;;;5015009;28;20041;-68
2022/09/29 03:26:43;;;;;;;19.65;3.92;;;5.70;99.90;;;;;;5014943;28;20049;-68
2022/09/29 03:29:08;;;;;;;3.80;3.10;;;5.60;99.90;;;;;;5026482;28;20045;-68
2022/09/29 03:31:34;;;;;;;3.38;3.08;;;5.60;99.90;;;;;;5029679;28;20034;-68
2022/09/29 03:33:59;;;;;;;4.75;3.75;;;5.70;99.90;;;;;;5013556;28;20041;-68
2022/09/29 03:36:26;;;;;;;4.10;3.47;;;;;;;;;;5014778;28;20484;-68
2022/09/29 03:38:51;;;;;;;5.22;4.72;;;5.70;99.90;;;;;;5014876;28;20052;-68
2022/09/29 03:41:17;;;;;;;5.45;3.35;;;5.60;99.90;;;;;;5014750;28;20492;-68
2022/09/29 03:43:43;;;;;;;35.72;4.53;;;5.70;99.90;;;;;;5014950;28;20049;-68
2022/09/29 03:46:08;;;;;;;5.05;2.90;;;5.50;99.90;;;;;;5034120;28;20041;-68
2022/09/29 03:48:34;;;;;;;3.40;3.10;;;5.50;99.90;;;;;;5016806;28;20068;-68
2022/09/29 03:51:00;;;;;;;4.70;3.20;;;5.50;99.90;;;;;;5013297;28;20133;-68
2022/09/29 03:53:26;;;;;;;3.42;3.13;;;5.50;99.90;;;;;;5014439;28;20041;-68
2022/09/29 03:55:51;;;;;;;3.97;3.35;;;5.60;99.90;;;;;;5013144;28;20099;-68
2022/09/29 03:58:18;;;;;;;4.70;4.25;;;5.50;99.90;;;;;;5013131;28;20046;-68
2022/09/29 04:00:46;;;;;;;14.40;4.60;;;5.50;99.90;;;;;;5014424;28;20061;-68
2022/09/29 04:03:11;;;;;;;5.32;4.47;;;5.30;99.90;;;;;;5014322;28;20038;-67
2022/09/29 04:05:38;;;;;;;5.32;4.82;;;5.30;99.90;;;;;;5012957;28;20385;-68
2022/09/29 04:08:04;;;;;;;4.40;4.03;;;5.30;99.90;;;;;;5012873;28;20050;-68
2022/09/29 04:10:34;;;;;;;4.15;3.72;;;5.50;99.90;;;;;;5013069;28;20042;-68
2022/09/29 04:13:00;;;;;;;5.43;3.75;;;;;;;;;;5026659;28;20116;-68
2022/09/29 04:15:25;;;;;;;3.80;3.50;;;5.20;99.90;;;;;;5012726;28;20449;-68
2022/09/29 04:17:51;;;;;;;5.13;3.60;;;;;;;;;;5013953;28;20054;-68
2022/09/29 04:20:17;;;;;;;6.18;4.20;;;5.50;99.90;;;;;;5012746;28;20045;-67
2022/09/29 04:22:43;;;;;;;4.13;3.80;;;5.30;99.90;;;;;;5012821;28;20125;-68
2022/09/29 04:25:08;;;;;;;5.35;4.85;;;5.40;99.90;;;;;;5013948;28;20037;-68
2022/09/29 04:27:34;;;;;;;5.15;4.75;;;5.30;99.90;;;;;;5026641;28;20057;-68
2022/09/29 04:29:59;;;;;;;4.78;4.15;;;5.20;99.90;;;;;;5027553;28;20041;-68
2022/09/29 04:32:25;;;;;;;4.68;4.28;;;5.30;99.90;;;;;;5013805;28;20026;-68
2022/09/29 04:34:51;;;;;;;4.95;4.40;;;5.40;99.90;;;;;;5013625;28;20034;-68
2022/09/29 04:37:16;;;;;;;4.30;3.90;;;5.20;99.90;;;;;;5022402;28;20042;-68
2022/09/29 04:39:42;;;;;;;3.85;3.55;;;5.40;99.90;;;;;;5031545;28;20041;-68
2022/09/29 04:42:07;;;;;;;5.05;4.55;;;5.40;99.90;;;;;;5013603;28;20076;-68
2022/09/29 04:44:33;;;;;;;4.75;4.35;;;;;;;;;;5022385;28;20060;-67
2022/09/29 04:46:59;;;;;;;5.28;4.78;;;5.40;99.90;;;;;;5028794;28;20109;-68
2022/09/29 04:49:25;;;;;;;5.97;4.47;;;5.30;99.90;;;;;;5012311;28;20042;-68
2022/09/29 04:51:50;;;;;;;4.15;3.80;;;5.30;99.90;;;;;;5012014;28;20084;-67
2022/09/29 04:54:16;;;;;;;6.10;5.03;;;5.30;99.90;;;;;;5013686;28;20396;-68
2022/09/29 04:56:41;;;;;;;4.75;4.30;;;5.40;99.90;;;;;;5012609;28;20412;-68
2022/09/29 04:59:08;;;;;;;5.28;4.40;;;;;;;;;;5032308;28;20050;-68
2022/09/29 05:01:34;;;;;;;7.68;5.35;;;5.30;99.90;;;;;;5020619;28;20052;-68
2022/09/29 05:04:00;;;;;;;17.10;4.05;;;5.50;99.90;;;;;;5013092;28;20042;-68
2022/09/29 05:06:26;;;;;;;10.85;3.88;;;5.40;99.90;;;;;;5011985;28;20092;-68
2022/09/29 05:08:52;;;;;;;7.30;4.20;;;5.20;99.90;;;;;;5013197;28;20097;-67
2022/09/29 05:11:17;;;;;;;8.68;3.78;;;5.10;99.90;;;;;;5018152;28;20069;-68
2022/09/29 05:13:43;;;;;;;4.40;4.03;;;5.10;99.90;;;;;;5022012;28;20074;-68
2022/09/29 05:16:08;;;;;;;5.20;4.72;;;5.00;99.90;;;;;;5011916;28;20054;-67
2022/09/29 05:18:34;;;;;;;5.15;3.92;;;5.10;99.90;;;;;;5013037;28;20104;-67
2022/09/29 05:21:05;;;;;;;5.38;4.88;;;5.20;99.90;;;;;;5011626;28;20048;-68
2022/09/29 05:23:30;;;;;;;4.55;4.13;;;5.10;99.90;;;;;;5019363;28;20042;-68
2022/09/29 05:26:04;;;;;;;5.43;4.93;;;5.10;99.90;;;;;;5033020;28;20033;-68
2022/09/29 05:28:30;;;;;;;5.05;4.55;;;5.20;99.90;;;;;;5019349;28;20096;-68
2022/09/29 05:31:01;;;;;;;6.28;4.65;;;5.10;99.90;;;;;;5026489;28;20084;-67
2022/09/29 05:33:27;;;;;;;5.72;5.13;;;5.10;99.90;;;;;;5031639;28;20080;-68
2022/09/29 05:35:52;;;;;;;6.28;5.68;;;5.20;99.90;;;;;;5032641;28;20053;-68
2022/09/29 05:38:18;;;;;;;6.50;5.25;;;5.10;99.90;;;;;;5032694;28;20040;-68
2022/09/29 05:40:43;;;;;;;6.50;5.47;;;5.30;99.90;;;;;;5031370;28;20037;-68
2022/09/29 05:43:09;;;;;;;5.90;5.40;;;5.10;99.90;;;;;;5032483;28;20030;-68
2022/09/29 05:45:34;;;;;;;5.40;4.90;;;5.10;99.90;;;;;;5032406;28;20120;-68
2022/09/29 05:48:00;;;;;;;3.92;3.33;;;5.00;99.90;;;;;;5032417;28;20113;-68
2022/09/29 05:50:26;;;;;;;3.65;3.35;;;5.00;99.90;;;;;;5032604;28;20531;-68
2022/09/29 05:52:51;;;;;;;4.43;3.83;;;5.10;99.90;;;;;;5032368;28;20116;-66
2022/09/29 05:55:17;;;;;;;12.57;4.32;;;5.10;99.90;;;;;;5032562;28;20025;-65
2022/09/29 05:57:47;;;;;;;5.30;4.80;;;5.10;99.90;;;;;;5030868;28;20045;-66
2022/09/29 06:00:13;;;;;;;4.18;3.78;;;5.10;99.90;;;;;;5030924;28;20041;-66
2022/09/29 06:02:38;;;;;;;4.43;3.97;;;5.20;99.90;;;;;;5030963;28;20120;-65
2022/09/29 06:05:04;;;;;;;4.65;4.25;;;5.10;99.90;;;;;;5031322;28;20053;-67
2022/09/29 06:07:30;;;;;;;6.07;4.85;;;5.10;99.90;;;;;;5032051;28;20033;-66
2022/09/29 06:09:56;;;;;;;6.82;5.50;;;5.00;99.90;;;;;;5032253;28;20041;-64
2022/09/29 06:12:21;;;;;;;6.88;4.95;;;5.20;99.90;;;;;;5030931;28;20045;-64
2022/09/29 06:14:47;;;;;;;5.80;4.65;;;5.10;99.90;;;;;;5019722;28;20427;-65
2022/09/29 06:17:13;;;;;;;10.10;5.97;;;5.20;99.90;;;;;;5017217;28;20041;-64
2022/09/29 06:19:38;;;;;;;6.50;5.47;;;5.30;99.90;;;;;;5030867;28;20033;-64
2022/09/29 06:22:04;;;;;;;5.78;5.28;;;;;;;;;;5036007;28;20032;-65
2022/09/29 06:24:30;;;;;;;6.38;4.68;;;;;;;;;;5034973;28;20060;-65
2022/09/29 06:26:56;;;;;;;5.60;5.10;;;5.30;99.90;;;;;;5034584;28;20269;-65
2022/09/29 06:29:21;;;;;;;5.20;4.70;;;5.30;99.90;;;;;;5034525;28;20056;-65
2022/09/29 06:31:47;;;;;;;6.80;5.25;;;;;;;;;;5035330;28;20033;-64
2022/09/29 06:34:13;;;;;;;6.30;5.07;;;5.60;99.90;;;;;;5034527;28;20038;-65
2022/09/29 06:39:26;;;;;;;6.22;5.63;;;5.70;99.90;;;;;;5034413;28;20551;-65
2022/09/29 06:41:53;;;;;;;6.30;5.70;;;5.70;99.90;;;;;;5034118;28;20122;-65
2022/09/29 06:44:20;;;;;;;7.82;6.25;;;5.80;99.90;;;;;;5034435;28;20163;-65
2022/09/29 06:46:47;;;;;;;6.45;5.85;;;5.90;99.90;;;;;;5035346;28;20098;-65
2022/09/29 06:49:16;;;;;;;7.82;5.93;;;6.00;99.90;;;;;;5034465;28;20063;-65
2022/09/29 06:51:42;;;;;;;6.80;6.20;;;6.00;99.90;;;;;;5034161;28;20045;-65
2022/09/29 06:54:09;;;;;;;6.22;5.63;;;6.10;99.90;;;;;;5033927;28;20124;-65
2022/09/29 06:56:35;;;;;;;9.35;7.57;;;6.20;99.90;;;;;;5035381;28;20037;-64
2022/09/29 06:59:00;;;;;;;8.63;7.72;;;6.30;99.90;;;;;;5035023;28;20033;-65
2022/09/29 07:01:26;;;;;;;10.82;8.10;;;6.30;99.90;;;;;;5035424;28;20042;-65
2022/09/29 07:03:51;;;;;;;9.73;6.75;;;6.40;99.90;;;;;;5035128;28;20113;-64
2022/09/29 07:06:17;;;;;;;8.10;6.95;;;6.50;99.90;;;;;;5035119;28;20032;-65
2022/09/29 07:08:43;;;;;;;9.50;7.05;;;6.50;99.90;;;;;;5035036;28;20511;-65
2022/09/29 07:11:09;;;;;;;8.32;7.45;;;6.70;99.90;;;;;;5034946;28;20040;-65
2022/09/29 07:13:35;;;;;;;8.68;7.47;;;6.80;99.90;;;;;;5025255;28;20128;-65
2022/09/29 07:16:19;;;;;;;9.32;7.10;;;7.00;99.90;;;;;;5015190;28;20073;-65
2022/09/29 07:18:45;;;;;;;9.60;8.15;;;6.90;99.90;;;;;;5015130;28;20046;-64
2022/09/29 07:21:15;;;;;;;9.88;7.53;;;7.10;99.90;;;;;;5014503;28;20071;-65
2022/09/29 07:23:41;;;;;;;9.75;7.72;;;7.10;99.90;;;;;;5014168;28;20049;-65
2022/09/29 07:26:07;;;;;;;12.07;8.52;;;7.10;99.90;;;;;;5014856;28;20037;-64
2022/09/29 07:28:33;;;;;;;11.95;9.35;;;7.50;99.90;;;;;;5015004;28;20061;-65
2022/09/29 07:31:05;;;;;;;9.95;8.82;;;7.60;99.90;;;;;;5015137;28;20052;-65
2022/09/29 07:33:31;;;;;;;11.18;8.88;;;7.90;99.90;;;;;;5034083;28;20048;-65
2022/09/29 07:35:59;;;;;;;10.82;9.07;;;8.20;99.90;;;;;;5023140;28;20124;-65
2022/09/29 07:38:25;;;;;;;13.73;9.93;;;9.30;99.90;;;;;;5032533;28;20046;-64
2022/09/29 07:40:51;;;;;;;14.10;9.18;;;9.50;99.90;;;;;;5016862;28;20052;-65
2022/09/29 07:43:16;;;;;;;10.50;9.45;;;9.50;99.90;;;;;;5033311;28;20379;-65
2022/09/29 07:45:48;;;;;;;11.73;8.65;;;9.50;99.90;;;;;;5025864;28;20518;-64
2022/09/29 07:48:14;;;;;;;10.73;8.90;;;9.40;99.90;;;;;;5032228;28;20049;-65
2022/09/29 07:50:40;;;;;;;15.13;10.43;;;9.30;99.90;;;;;;5014581;28;20049;-65
2022/09/29 07:53:05;;;;;;;10.43;9.13;;;9.30;99.90;;;;;;5014416;28;20405;-65
2022/09/29 07:55:31;;;;;;;11.13;9.25;;;9.40;99.90;;;;;;5019094;28;20065;-64
2022/09/29 07:57:56;;;;;;;14.93;9.82;;;9.50;99.90;;;;;;5034128;28;20150;-65
2022/09/29 08:00:22;;;;;;;13.55;10.88;;;9.40;99.90;;;;;;5031618;28;20030;-64
2022/09/29 08:02:48;;;;;;;14.07;10.75;;;9.50;99.90;;;;;;5014308;28;20042;-65
2022/09/29 08:05:14;;;;;;;12.98;10.35;;;9.50;99.90;;;;;;5013886;28;20053;-64
2022/09/29 08:07:39;;;;;;;14.95;9.65;;;9.80;99.90;;;;;;5020857;28;20071;-65
2022/09/29 08:10:05;;;;;;;12.45;9.95;;;9.90;99.90;;;;;;5032556;28;20399;-64
2022/09/29 08:12:31;;;;;;;14.55;10.10;;;9.90;99.90;;;;;;5013969;28;20053;-65
2022/09/29 08:14:56;;;;;;;13.85;9.70;;;10.50;99.90;;;;;;5013881;28;20049;-64
2022/09/29 08:17:22;;;;;;;14.07;9.75;;;10.40;99.90;;;;;;5026722;28;20139;-65
2022/09/29 08:19:48;;;;;;;12.38;9.65;;;10.70;99.90;;;;;;5028983;28;20042;-65
2022/09/29 08:22:13;;;;;;;12.20;8.98;;;11.00;99.90;;;;;;5033274;28;20041;-65
2022/09/29 08:24:39;;;;;;;10.73;8.93;;;11.20;99.90;;;;;;5033506;28;20041;-64
2022/09/29 08:27:05;;;;;;;14.05;9.25;;;11.40;99.90;;;;;;5033555;28;20037;-65
2022/09/29 08:29:32;;;;;;;12.13;8.85;;;11.40;99.90;;;;;;5032439;28;20057;-64
2022/09/29 08:31:58;;;;;;;9.95;8.07;;;11.70;99.90;;;;;;5033317;28;20509;-65
2022/09/29 08:34:23;;;;;;;10.68;8.65;;;12.20;99.90;;;;;;5032591;28;20042;-65
2022/09/29 08:36:50;;;;;;;9.40;7.10;;;12.00;99.90;;;;;;5033267;28;20037;-65
2022/09/29 08:39:18;;;;;;;10.10;8.30;;;;;;;;;;5032111;28;20418;-64
2022/09/29 08:42:16;;;;;;;11.02;8.82;;;12.10;99.90;;;;;;5032063;28;20043;-65
2022/09/29 08:44:54;;;;;;;11.65;8.20;;;12.00;99.90;;;;;;5027297;28;20037;-65
2022/09/29 08:47:33;;;;;;;9.40;8.30;;;12.00;99.90;;;;;;5031271;28;20061;-64
2022/09/29 08:50:04;;;;;;;12.00;8.65;;;12.40;99.90;;;;;;5031876;28;20060;-65
2022/09/29 08:52:37;;;;;;;10.45;8.75;;;12.20;99.90;;;;;;5032987;28;20556;-64
2022/09/29 08:55:15;;;;;;;12.85;9.65;;;12.10;99.90;;;;;;5031892;28;20049;-64
2022/09/29 08:57:41;;;;;;;13.27;9.18;;;12.60;99.90;;;;;;5031636;28;20045;-65
2022/09/29 09:00:14;;;;;;;14.68;8.75;;;13.30;99.90;;;;;;5033034;28;20106;-64
2022/09/29 09:02:55;;;;;;;10.30;8.50;;;14.10;99.90;;;;;;5015510;28;20049;-65
2022/09/29 09:05:39;;;;;;;9.77;7.20;;;15.00;99.90;;;;;;5033066;28;20038;-64
2022/09/29 09:08:18;;;;;;;8.85;6.78;;;15.90;99.90;;;;;;5023428;28;20084;-65
2022/09/29 09:10:58;;;;;;;10.18;6.65;;;16.20;99.90;;;;;;5031375;28;20045;-64
2022/09/29 09:13:47;;;;;;;7.25;5.47;;;17.70;99.90;;;;;;5023800;28;20037;-65
2022/09/29 09:16:48;;;;;;;12.13;6.00;;;19.20;99.90;;;;;;5013330;28;20129;-65
2022/09/29 09:19:37;;;;;;;5.38;3.92;;;21.60;99.90;;;;;;4993081;28;20046;-65
2022/09/29 09:22:30;;;;;;;4.13;3.10;;;23.30;99.90;;;;;;5016285;28;20038;-65
2022/09/29 09:25:22;;;;;;;4.68;2.97;;;24.60;99.90;;;;;;5014456;28;20277;-65
2022/09/29 09:28:01;;;;;;;4.65;3.60;;;25.50;99.90;;;;;;5017281;28;20118;-65
2022/09/29 09:30:33;;;;;;;4.22;2.33;;;26.10;99.90;;;;;;5020743;28;20052;-65
2022/09/29 09:33:03;;;;;;;3.55;2.58;;;26.70;99.90;;;;;;5032440;28;20056;-65
2022/09/29 09:35:36;;;;;;;3.55;2.53;;;27.20;99.90;;;;;;5032100;28;20046;-65
2022/09/29 09:38:09;;;;;;;4.10;2.60;;;28.40;99.90;;;;;;5031049;28;20041;-65
2022/09/29 09:40:46;;;;;;;4.05;2.03;;;30.40;99.90;;;;;;5031522;28;20045;-65
2022/09/29 09:43:30;;;;;;;2.25;1.73;;;29.30;99.90;;;;;;5032494;28;20126;-65
2022/09/29 09:46:18;;;;;;;3.72;1.63;;;29.50;99.90;;;;;;5034505;28;20041;-65
2022/09/29 09:49:03;;;;;;;3.80;1.80;;;30.00;99.90;;;;;;5036677;28;20088;-65
2022/09/29 09:52:01;;;;;;;2.40;1.35;;;30.10;99.90;;;;;;5035435;28;20048;-65
2022/09/29 09:54:30;;;;;;;2.88;1.40;;;30.20;99.90;;;;;;5026764;28;20439;-65
2022/09/29 09:57:24;;;;;;;2.65;1.35;;;30.40;99.60;;;;;;5036229;28;20132;-65
2022/09/29 10:00:03;;;;;;;5.28;1.80;;;30.10;98.10;;;;;;5035464;28;20057;-65
2022/09/29 10:02:30;;;;;;;3.90;1.50;;;30.00;98.70;;;;;;5029391;28;20046;-65
2022/09/29 10:04:56;;;;;;;2.40;1.23;;;30.00;97.70;;;;;;5035189;28;20180;-65
2022/09/29 10:07:24;;;;;;;2.70;1.40;;;28.40;97.10;;;;;;5036538;28;20116;-65
2022/09/29 10:09:51;;;;;;;2.95;1.85;;;25.70;98.60;;;;;;5034919;28;20509;-65
2022/09/29 10:12:19;;;;;;;3.63;1.63;;;24.60;99.90;;;;;;5035410;28;20045;-64
2022/09/29 10:14:53;;;;;;;2.92;1.40;;;23.90;99.90;;;;;;5024615;28;20050;-64
2022/09/29 10:17:24;;;;;;;3.38;1.55;;;22.50;99.90;;;;;;5028126;28;20038;-65
2022/09/29 10:20:03;;;;;;;5.25;1.58;;;21.00;99.90;;;;;;5032538;28;20029;-65
2022/09/29 10:22:29;;;;;;;2.55;1.85;;;20.30;99.90;;;;;;5017459;28;20053;-65
2022/09/29 10:25:17;;;;;;;4.07;1.50;;;19.70;99.90;;;;;;5035543;28;20033;-65
2022/09/29 10:27:46;;;;;;;6.25;2.63;;;18.70;99.90;;;;;;5035176;28;20041;-65
2022/09/29 10:30:21;;;;;;;6.40;2.70;;;18.50;99.90;;;;;;5024350;28;20403;-65
2022/09/29 10:32:48;;;;;;;3.20;2.90;;;18.40;99.90;;;;;;5033365;28;20040;-65
2022/09/29 10:35:27;;;;;;;3.67;2.22;;;17.70;99.90;;;;;;5034404;28;20041;-65
2022/09/29 10:38:04;;;;;;;3.30;2.47;;;17.40;99.90;;;;;;5035687;28;20069;-65
2022/09/29 10:40:29;;;;;;;4.03;1.75;;;16.80;99.90;;;;;;5028644;28;20041;-64
2022/09/29 10:42:56;;;;;;;2.55;1.00;;;16.50;99.90;;;;;;5035224;28;20442;-64
2022/09/29 10:45:24;;;;;;;3.42;2.10;;;16.40;99.90;;;;;;5033791;28;20496;-65
2022/09/29 10:47:56;;;;;;;4.55;2.42;;;16.10;99.90;;;;;;5034253;28;20041;-65
2022/09/29 10:50:23;;;;;;;3.20;2.22;;;16.00;99.90;;;;;;5034059;28;20128;-64
2022/09/29 10:52:52;;;;;;;2.90;2.53;;;15.70;99.90;;;;;;5034356;28;20128;-65
2022/09/29 10:55:27;;;;;;;2.67;2.00;;;15.90;99.90;;;;;;5033138;28;20052;-64
2022/09/29 10:57:55;;;;;;;5.07;2.30;;;15.70;99.90;;;;;;5024692;28;20049;-64
2022/09/29 11:00:36;;;;;;;4.07;2.55;;;15.70;99.90;;;;;;5035609;28;20045;-65
2022/09/29 11:03:20;;;;;;;5.40;2.60;;;15.60;99.90;;;;;;5026166;28;20037;-65
2022/09/29 11:05:57;;;;;;;3.15;2.28;;;15.70;99.90;;;;;;5033963;28;20037;-65
2022/09/29 11:08:26;;;;;;;3.85;2.17;;;15.50;99.90;;;;;;5034223;28;20064;-65
2022/09/29 11:11:07;;;;;;;2.40;1.90;;;15.60;99.90;;;;;;5034986;28;20034;-65
2022/09/29 11:13:39;;;;;;;2.33;1.85;;;15.90;99.90;;;;;;5025641;28;20045;-66
2022/09/29 11:16:16;;;;;;;2.53;1.98;;;15.70;99.90;;;;;;5015252;28;20081;-64
2022/09/29 11:18:45;;;;;;;2.40;1.52;;;15.60;99.90;;;;;;5023431;28;20376;-65
2022/09/29 11:21:20;;;;;;;2.90;1.63;;;15.50;99.90;;;;;;5019789;28;20042;-65
2022/09/29 11:24:04;;;;;;;;;;;15.60;99.90;;;;;;5034107;28;20037;-65
2022/09/29 11:26:39;;;;;;;3.60;1.15;;;15.50;99.90;;;;;;5034935;28;19917;-65
2022/09/29 11:29:15;;;;;;;3.33;2.17;;;15.50;99.90;;;;;;5033903;28;20049;-65
2022/09/29 11:31:43;;;;;;;1.75;1.45;;;15.70;99.90;;;;;;5029160;28;20500;-64
2022/09/29 11:34:42;;;;;;;3.10;1.00;;;15.60;99.90;;;;;;5024640;28;20057;-65
2022/09/29 11:37:36;;;;;;;1.95;1.10;;;15.60;99.90;;;;;;5014889;28;20092;-65
2022/09/29 11:40:11;;;;;;;1.85;1.10;;;15.50;99.90;;;;;;5030637;28;20057;-65
2022/09/29 11:42:45;;;;;;;1.95;1.40;;;15.50;99.90;;;;;;5034603;28;20052;-65
2022/09/29 11:45:17;;;;;;;1.77;1.33;;;15.70;99.90;;;;;;5034447;28;20064;-65
2022/09/29 11:48:07;;;;;;;2.17;1.58;;;15.80;99.90;;;;;;5034485;28;20283;-65
2022/09/29 11:50:46;;;;;;;2.67;2.03;;;15.60;99.90;;;;;;5014566;28;20580;-65
2022/09/29 11:53:30;;;;;;;2.83;1.92;;;15.60;99.90;;;;;;5013339;28;20140;-65
2022/09/29 11:56:14;;;;;;;1.95;0.95;;;15.50;99.90;;;;;;5013331;28;20542;-65
2022/09/29 11:58:50;;;;;;;2.80;1.58;;;15.50;99.90;;;;;;5015957;28;20135;-65
2022/09/29 12:01:33;;;;;;;3.53;1.60;;;15.40;99.90;;;;;;5034304;28;20072;-65
2022/09/29 12:04:14;;;;;;;2.22;1.30;;;15.40;99.90;;;;;;5029540;28;20034;-65
2022/09/29 12:06:50;;;;;;;2.03;1.05;;;15.50;99.90;;;;;;5026976;28;20049;-65
2022/09/29 12:09:40;;;;;;;0.82;0.50;;;15.70;99.90;;;;;;5032551;28;20048;-64
2022/09/29 12:12:19;;;;;;;1.88;0.77;;;15.60;99.90;;;;;;5033944;28;20095;-65
2022/09/29 12:14:45;;;;;;;7.05;1.10;;;15.50;99.90;;;;;;5013425;28;20085;-64
2022/09/29 12:17:17;;;;;;;1.42;0.90;;;15.70;99.90;;;;;;5025250;28;20066;-65
2022/09/29 12:19:44;;;;;;;2.00;0.63;;;15.60;99.90;;;;;;5029587;28;20504;-64
2022/09/29 12:22:17;;;;;;;1.15;0.90;;;15.50;99.90;;;;;;5022908;28;20042;-65
2022/09/29 12:24:45;;;;;;;2.15;0.88;;;15.50;99.90;;;;;;5030596;28;20548;-64
2022/09/29 12:27:20;;;;;;;1.27;0.95;;;15.60;99.90;;;;;;5014095;28;20042;-64
2022/09/29 12:29:54;;;;;;;1.30;0.90;;;15.60;99.90;;;;;;5012912;28;20057;-65
2022/09/29 12:32:36;;;;;;;2.80;1.20;;;15.60;99.90;;;;;;5023628;28;20034;-65
2022/09/29 12:35:14;;;;;;;2.25;0.88;;;15.50;99.90;;;;;;5029460;28;20049;-65
2022/09/29 12:37:58;;;;;;;1.20;0.68;;;15.60;99.90;;;;;;5012543;28;20050;-64
2022/09/29 12:40:37;;;;;;;1.85;0.70;;;15.50;99.90;;;;;;5012647;28;20038;-65
2022/09/29 12:43:03;;;;;;;1.95;0.60;;;15.80;99.90;;;;;;5012401;28;20077;-65
2022/09/29 12:45:47;;;;;;;1.60;0.70;;;15.50;99.90;;;;;;5027094;28;20087;-65
2022/09/29 12:48:32;;;;;;;0.83;0.53;;;15.70;99.90;;;;;;5017435;28;20038;-65
2022/09/29 12:51:18;;;;;;;2.40;0.98;;;15.40;99.90;;;;;;5012637;28;20408;-65
2022/09/29 12:54:04;;;;;;;1.10;0.60;;;15.40;99.90;;;;;;5025917;28;20408;-65
2022/09/29 12:56:37;;;;;;;1.00;0.70;;;15.50;99.90;;;;;;5012587;28;20095;-65
2022/09/29 12:59:22;;;;;;;1.40;0.70;;;15.60;99.90;;;;;;5013638;28;20037;-65
2022/09/29 13:01:53;;;;;;;3.60;0.90;;;15.50;99.90;;;;;;5012219;28;20053;-64
2022/09/29 13:04:40;;;;;;;1.00;0.80;;;15.60;99.90;;;;;;5020811;28;20065;-65
2022/09/29 13:07:20;;;;;;;1.30;0.70;;;15.60;99.90;;;;;;5033048;28;20041;-65
2022/09/29 13:09:58;;;;;;;3.55;1.02;;;15.60;99.90;;;;;;5031703;28;20053;-65
2022/09/29 13:12:32;;;;;;;2.58;0.80;;;15.50;99.90;;;;;;5027696;28;20041;-65
2022/09/29 13:15:24;;;;;;;0.85;0.52;;;15.60;99.90;;;;;;5020014;28;20458;-65
2022/09/29 13:18:11;;;;;;;1.60;0.57;;;15.50;99.90;;;;;;5031545;28;20107;-65
2022/09/29 13:20:54;;;;;;;1.35;0.50;;;15.50;99.90;;;;;;5019798;28;20050;-65